sensor_id;sensor_type;location;lat;lon;timestamp;P1;durP1;ratioP1;P2;durP2;ratioP2
41661;SDS011;27351;45.992;12.666;2023-11-18T00:00:19;17.10;;;8.23;;
41661;SDS011;27351;45.992;12.666;2023-11-18T00:02:45;16.08;;;8.07;;
41661;SDS011;27351;45.992;12.666;2023-11-18T00:05:11;16.38;;;8.25;;
41661;SDS011;27351;45.992;12.666;2023-11-18T00:07:37;15.27;;;7.55;;
41661;SDS011;27351;45.992;12.666;2023-11-18T00:10:03;15.93;;;8.43;;
41661;SDS011;27351;45.992;12.666;2023-11-18T00:12:30;17.70;;;8.53;;
41661;SDS011;27351;45.992;12.666;2023-11-18T00:14:56;15.23;;;8.17;;
41661;SDS011;27351;45.992;12.666;2023-11-18T00:17:22;16.10;;;7.87;;
41661;SDS011;27351;45.992;12.666;2023-11-18T00:19:48;16.90;;;8.50;;
41661;SDS011;27351;45.992;12.666;2023-11-18T00:22:13;15.80;;;8.53;;
41661;SDS011;27351;45.992;12.666;2023-11-18T00:24:39;15.03;;;8.03;;
41661;SDS011;27351;45.992;12.666;2023-11-18T00:27:05;15.32;;;8.13;;
41661;SDS011;27351;45.992;12.666;2023-11-18T00:29:33;15.13;;;8.27;;
41661;SDS011;27351;45.992;12.666;2023-11-18T00:32:00;15.77;;;8.15;;
41661;SDS011;27351;45.992;12.666;2023-11-18T00:34:25;14.47;;;8.13;;
41661;SDS011;27351;45.992;12.666;2023-11-18T00:36:51;19.20;;;8.70;;
41661;SDS011;27351;45.992;12.666;2023-11-18T00:39:17;16.15;;;8.30;;
41661;SDS011;27351;45.992;12.666;2023-11-18T00:41:43;16.15;;;8.95;;
41661;SDS011;27351;45.992;12.666;2023-11-18T00:44:08;15.23;;;8.47;;
41661;SDS011;27351;45.992;12.666;2023-11-18T00:46:35;14.15;;;7.82;;
41661;SDS011;27351;45.992;12.666;2023-11-18T00:49:02;12.95;;;7.95;;
41661;SDS011;27351;45.992;12.666;2023-11-18T00:51:27;14.65;;;7.20;;
41661;SDS011;27351;45.992;12.666;2023-11-18T00:53:54;12.63;;;6.90;;
41661;SDS011;27351;45.992;12.666;2023-11-18T00:56:20;12.25;;;6.95;;
41661;SDS011;27351;45.992;12.666;2023-11-18T00:58:47;12.05;;;6.35;;
41661;SDS011;27351;45.992;12.666;2023-11-18T01:01:12;13.17;;;6.93;;
41661;SDS011;27351;45.992;12.666;2023-11-18T01:03:38;12.77;;;6.53;;
41661;SDS011;27351;45.992;12.666;2023-11-18T01:06:04;10.90;;;6.43;;
41661;SDS011;27351;45.992;12.666;2023-11-18T01:08:31;12.02;;;6.32;;
41661;SDS011;27351;45.992;12.666;2023-11-18T01:10:57;11.43;;;6.40;;
41661;SDS011;27351;45.992;12.666;2023-11-18T01:13:22;12.10;;;6.25;;
41661;SDS011;27351;45.992;12.666;2023-11-18T01:15:48;11.23;;;5.63;;
41661;SDS011;27351;45.992;12.666;2023-11-18T01:18:14;10.07;;;5.28;;
41661;SDS011;27351;45.992;12.666;2023-11-18T01:20:40;9.10;;;4.93;;
41661;SDS011;27351;45.992;12.666;2023-11-18T01:23:06;9.30;;;4.90;;
41661;SDS011;27351;45.992;12.666;2023-11-18T01:25:32;11.07;;;5.20;;
41661;SDS011;27351;45.992;12.666;2023-11-18T01:27:57;9.93;;;5.27;;
41661;SDS011;27351;45.992;12.666;2023-11-18T01:30:23;9.38;;;4.70;;
41661;SDS011;27351;45.992;12.666;2023-11-18T01:32:49;9.23;;;4.97;;
41661;SDS011;27351;45.992;12.666;2023-11-18T01:35:14;9.87;;;4.63;;
41661;SDS011;27351;45.992;12.666;2023-11-18T01:37:40;7.63;;;4.47;;
41661;SDS011;27351;45.992;12.666;2023-11-18T01:40:06;7.83;;;3.80;;
41661;SDS011;27351;45.992;12.666;2023-11-18T01:42:33;8.43;;;4.13;;
41661;SDS011;27351;45.992;12.666;2023-11-18T01:44:58;6.10;;;2.83;;
41661;SDS011;27351;45.992;12.666;2023-11-18T01:47:29;5.45;;;2.70;;
41661;SDS011;27351;45.992;12.666;2023-11-18T01:49:58;5.35;;;2.20;;
41661;SDS011;27351;45.992;12.666;2023-11-18T01:52:26;5.53;;;2.40;;
41661;SDS011;27351;45.992;12.666;2023-11-18T01:54:51;6.23;;;2.50;;
41661;SDS011;27351;45.992;12.666;2023-11-18T01:57:20;4.77;;;2.60;;
41661;SDS011;27351;45.992;12.666;2023-11-18T01:59:46;4.72;;;2.35;;
41661;SDS011;27351;45.992;12.666;2023-11-18T02:02:12;4.63;;;2.25;;
41661;SDS011;27351;45.992;12.666;2023-11-18T02:04:38;6.03;;;2.50;;
41661;SDS011;27351;45.992;12.666;2023-11-18T02:07:04;5.72;;;2.30;;
41661;SDS011;27351;45.992;12.666;2023-11-18T02:09:34;5.17;;;2.03;;
41661;SDS011;27351;45.992;12.666;2023-11-18T02:12:19;5.00;;;2.30;;
41661;SDS011;27351;45.992;12.666;2023-11-18T02:14:47;3.80;;;1.80;;
41661;SDS011;27351;45.992;12.666;2023-11-18T02:17:17;4.63;;;2.10;;
41661;SDS011;27351;45.992;12.666;2023-11-18T02:19:43;5.40;;;2.00;;
41661;SDS011;27351;45.992;12.666;2023-11-18T02:22:09;4.40;;;1.92;;
41661;SDS011;27351;45.992;12.666;2023-11-18T02:24:36;5.05;;;2.20;;
41661;SDS011;27351;45.992;12.666;2023-11-18T02:27:02;4.13;;;2.10;;
41661;SDS011;27351;45.992;12.666;2023-11-18T02:29:41;5.28;;;2.05;;
41661;SDS011;27351;45.992;12.666;2023-11-18T02:32:15;4.60;;;1.90;;
41661;SDS011;27351;45.992;12.666;2023-11-18T02:34:53;4.07;;;1.95;;
41661;SDS011;27351;45.992;12.666;2023-11-18T02:37:20;5.50;;;1.95;;
41661;SDS011;27351;45.992;12.666;2023-11-18T02:39:47;4.05;;;2.20;;
41661;SDS011;27351;45.992;12.666;2023-11-18T02:42:16;4.37;;;2.43;;
41661;SDS011;27351;45.992;12.666;2023-11-18T02:44:42;4.90;;;2.10;;
41661;SDS011;27351;45.992;12.666;2023-11-18T02:47:09;5.40;;;2.30;;
41661;SDS011;27351;45.992;12.666;2023-11-18T02:49:35;5.40;;;2.45;;
41661;SDS011;27351;45.992;12.666;2023-11-18T02:52:01;5.13;;;2.20;;
41661;SDS011;27351;45.992;12.666;2023-11-18T02:54:26;6.50;;;2.20;;
41661;SDS011;27351;45.992;12.666;2023-11-18T02:56:52;4.30;;;1.93;;
41661;SDS011;27351;45.992;12.666;2023-11-18T02:59:17;5.07;;;2.23;;
41661;SDS011;27351;45.992;12.666;2023-11-18T03:01:43;4.80;;;2.27;;
41661;SDS011;27351;45.992;12.666;2023-11-18T03:04:10;3.30;;;1.60;;
41661;SDS011;27351;45.992;12.666;2023-11-18T03:06:35;4.53;;;1.80;;
41661;SDS011;27351;45.992;12.666;2023-11-18T03:09:01;3.73;;;1.80;;
41661;SDS011;27351;45.992;12.666;2023-11-18T03:11:28;4.03;;;1.90;;
41661;SDS011;27351;45.992;12.666;2023-11-18T03:13:56;3.95;;;1.52;;
41661;SDS011;27351;45.992;12.666;2023-11-18T03:16:23;4.22;;;1.85;;
41661;SDS011;27351;45.992;12.666;2023-11-18T03:18:50;5.75;;;1.50;;
41661;SDS011;27351;45.992;12.666;2023-11-18T03:21:16;3.57;;;1.30;;
41661;SDS011;27351;45.992;12.666;2023-11-18T03:23:42;3.78;;;1.30;;
41661;SDS011;27351;45.992;12.666;2023-11-18T03:26:08;6.03;;;1.42;;
41661;SDS011;27351;45.992;12.666;2023-11-18T03:28:34;3.40;;;1.30;;
41661;SDS011;27351;45.992;12.666;2023-11-18T03:31:02;2.20;;;1.13;;
41661;SDS011;27351;45.992;12.666;2023-11-18T03:33:29;3.70;;;1.40;;
41661;SDS011;27351;45.992;12.666;2023-11-18T03:35:54;2.40;;;1.03;;
41661;SDS011;27351;45.992;12.666;2023-11-18T03:38:21;1.67;;;1.25;;
41661;SDS011;27351;45.992;12.666;2023-11-18T03:40:47;1.85;;;1.00;;
41661;SDS011;27351;45.992;12.666;2023-11-18T03:43:13;2.60;;;0.88;;
41661;SDS011;27351;45.992;12.666;2023-11-18T03:45:39;2.35;;;0.90;;
41661;SDS011;27351;45.992;12.666;2023-11-18T03:48:05;1.40;;;0.63;;
41661;SDS011;27351;45.992;12.666;2023-11-18T03:50:31;0.80;;;0.60;;
41661;SDS011;27351;45.992;12.666;2023-11-18T03:52:57;1.33;;;0.80;;
41661;SDS011;27351;45.992;12.666;2023-11-18T03:55:23;1.40;;;0.60;;
41661;SDS011;27351;45.992;12.666;2023-11-18T03:57:50;1.27;;;0.70;;
41661;SDS011;27351;45.992;12.666;2023-11-18T04:00:16;1.55;;;0.77;;
41661;SDS011;27351;45.992;12.666;2023-11-18T04:02:41;1.48;;;0.85;;
41661;SDS011;27351;45.992;12.666;2023-11-18T04:05:07;1.77;;;0.77;;
41661;SDS011;27351;45.992;12.666;2023-11-18T04:07:34;1.20;;;0.70;;
41661;SDS011;27351;45.992;12.666;2023-11-18T04:09:59;0.90;;;0.60;;
41661;SDS011;27351;45.992;12.666;2023-11-18T04:12:25;1.00;;;0.47;;
41661;SDS011;27351;45.992;12.666;2023-11-18T04:14:52;1.38;;;0.65;;
41661;SDS011;27351;45.992;12.666;2023-11-18T04:17:17;1.30;;;0.67;;
41661;SDS011;27351;45.992;12.666;2023-11-18T04:19:43;1.50;;;0.50;;
41661;SDS011;27351;45.992;12.666;2023-11-18T04:22:09;0.93;;;0.60;;
41661;SDS011;27351;45.992;12.666;2023-11-18T04:24:35;0.75;;;0.57;;
41661;SDS011;27351;45.992;12.666;2023-11-18T04:27:00;1.40;;;0.70;;
41661;SDS011;27351;45.992;12.666;2023-11-18T04:29:27;0.93;;;0.50;;
41661;SDS011;27351;45.992;12.666;2023-11-18T04:31:53;1.70;;;0.60;;
41661;SDS011;27351;45.992;12.666;2023-11-18T04:34:19;0.77;;;0.60;;
41661;SDS011;27351;45.992;12.666;2023-11-18T04:36:44;1.17;;;0.50;;
41661;SDS011;27351;45.992;12.666;2023-11-18T04:39:10;1.27;;;0.70;;
41661;SDS011;27351;45.992;12.666;2023-11-18T04:41:41;1.27;;;0.70;;
41661;SDS011;27351;45.992;12.666;2023-11-18T04:44:07;1.05;;;0.68;;
41661;SDS011;27351;45.992;12.666;2023-11-18T04:46:32;2.23;;;0.60;;
41661;SDS011;27351;45.992;12.666;2023-11-18T04:48:58;0.80;;;0.50;;
41661;SDS011;27351;45.992;12.666;2023-11-18T04:51:24;1.10;;;0.70;;
41661;SDS011;27351;45.992;12.666;2023-11-18T04:53:50;1.45;;;0.57;;
41661;SDS011;27351;45.992;12.666;2023-11-18T04:56:16;1.33;;;0.60;;
41661;SDS011;27351;45.992;12.666;2023-11-18T04:58:43;1.05;;;0.52;;
41661;SDS011;27351;45.992;12.666;2023-11-18T05:01:12;0.68;;;0.52;;
41661;SDS011;27351;45.992;12.666;2023-11-18T05:03:38;1.40;;;0.60;;
41661;SDS011;27351;45.992;12.666;2023-11-18T05:06:03;1.90;;;0.70;;
41661;SDS011;27351;45.992;12.666;2023-11-18T05:08:29;0.93;;;0.60;;
41661;SDS011;27351;45.992;12.666;2023-11-18T05:10:56;3.38;;;0.90;;
41661;SDS011;27351;45.992;12.666;2023-11-18T05:13:23;1.55;;;0.80;;
41661;SDS011;27351;45.992;12.666;2023-11-18T05:15:48;1.50;;;0.80;;
41661;SDS011;27351;45.992;12.666;2023-11-18T05:18:15;1.85;;;0.70;;
41661;SDS011;27351;45.992;12.666;2023-11-18T05:20:41;1.97;;;0.93;;
41661;SDS011;27351;45.992;12.666;2023-11-18T05:23:07;2.50;;;1.10;;
41661;SDS011;27351;45.992;12.666;2023-11-18T05:25:44;2.80;;;1.20;;
41661;SDS011;27351;45.992;12.666;2023-11-18T05:28:10;3.17;;;1.48;;
41661;SDS011;27351;45.992;12.666;2023-11-18T05:30:37;2.38;;;1.10;;
41661;SDS011;27351;45.992;12.666;2023-11-18T05:33:03;3.63;;;1.08;;
41661;SDS011;27351;45.992;12.666;2023-11-18T05:35:31;1.67;;;0.85;;
41661;SDS011;27351;45.992;12.666;2023-11-18T05:37:57;3.60;;;1.05;;
41661;SDS011;27351;45.992;12.666;2023-11-18T05:40:22;2.33;;;1.20;;
41661;SDS011;27351;45.992;12.666;2023-11-18T05:42:48;1.60;;;0.80;;
41661;SDS011;27351;45.992;12.666;2023-11-18T05:45:17;1.60;;;0.70;;
41661;SDS011;27351;45.992;12.666;2023-11-18T05:47:53;2.20;;;0.90;;
41661;SDS011;27351;45.992;12.666;2023-11-18T05:50:19;4.30;;;1.30;;
41661;SDS011;27351;45.992;12.666;2023-11-18T05:52:45;1.80;;;0.88;;
41661;SDS011;27351;45.992;12.666;2023-11-18T05:55:12;4.25;;;1.00;;
41661;SDS011;27351;45.992;12.666;2023-11-18T05:57:38;2.43;;;0.80;;
41661;SDS011;27351;45.992;12.666;2023-11-18T06:00:04;2.15;;;0.90;;
41661;SDS011;27351;45.992;12.666;2023-11-18T06:02:37;2.33;;;1.13;;
41661;SDS011;27351;45.992;12.666;2023-11-18T06:05:04;1.90;;;1.00;;
41661;SDS011;27351;45.992;12.666;2023-11-18T06:07:30;2.80;;;1.10;;
41661;SDS011;27351;45.992;12.666;2023-11-18T06:09:56;4.23;;;1.47;;
41661;SDS011;27351;45.992;12.666;2023-11-18T06:12:23;2.78;;;1.13;;
41661;SDS011;27351;45.992;12.666;2023-11-18T06:14:48;2.33;;;1.10;;
41661;SDS011;27351;45.992;12.666;2023-11-18T06:17:16;5.23;;;1.40;;
41661;SDS011;27351;45.992;12.666;2023-11-18T06:19:44;2.93;;;0.97;;
41661;SDS011;27351;45.992;12.666;2023-11-18T06:22:10;1.58;;;0.80;;
41661;SDS011;27351;45.992;12.666;2023-11-18T06:24:35;2.45;;;1.00;;
41661;SDS011;27351;45.992;12.666;2023-11-18T06:27:01;4.53;;;1.60;;
41661;SDS011;27351;45.992;12.666;2023-11-18T06:29:27;1.95;;;0.93;;
41661;SDS011;27351;45.992;12.666;2023-11-18T06:31:54;3.53;;;1.05;;
41661;SDS011;27351;45.992;12.666;2023-11-18T06:34:20;2.55;;;1.00;;
41661;SDS011;27351;45.992;12.666;2023-11-18T06:36:46;3.17;;;1.10;;
41661;SDS011;27351;45.992;12.666;2023-11-18T06:39:11;2.60;;;1.13;;
41661;SDS011;27351;45.992;12.666;2023-11-18T06:41:38;2.30;;;1.20;;
41661;SDS011;27351;45.992;12.666;2023-11-18T06:44:14;2.45;;;1.00;;
41661;SDS011;27351;45.992;12.666;2023-11-18T06:46:43;2.33;;;1.10;;
41661;SDS011;27351;45.992;12.666;2023-11-18T06:49:09;3.33;;;1.27;;
41661;SDS011;27351;45.992;12.666;2023-11-18T06:51:40;2.00;;;1.10;;
41661;SDS011;27351;45.992;12.666;2023-11-18T06:54:06;2.22;;;1.10;;
41661;SDS011;27351;45.992;12.666;2023-11-18T06:56:42;2.10;;;0.90;;
41661;SDS011;27351;45.992;12.666;2023-11-18T06:59:08;1.98;;;0.90;;
41661;SDS011;27351;45.992;12.666;2023-11-18T07:01:38;2.53;;;1.10;;
41661;SDS011;27351;45.992;12.666;2023-11-18T07:04:06;2.30;;;1.30;;
41661;SDS011;27351;45.992;12.666;2023-11-18T07:06:34;5.32;;;2.10;;
41661;SDS011;27351;45.992;12.666;2023-11-18T07:09:03;6.13;;;2.90;;
41661;SDS011;27351;45.992;12.666;2023-11-18T07:11:34;10.10;;;4.90;;
41661;SDS011;27351;45.992;12.666;2023-11-18T07:14:00;14.77;;;7.20;;
41661;SDS011;27351;45.992;12.666;2023-11-18T07:16:26;12.60;;;6.33;;
41661;SDS011;27351;45.992;12.666;2023-11-18T07:18:51;11.47;;;6.33;;
41661;SDS011;27351;45.992;12.666;2023-11-18T07:21:17;12.00;;;5.40;;
41661;SDS011;27351;45.992;12.666;2023-11-18T07:23:43;9.65;;;4.57;;
41661;SDS011;27351;45.992;12.666;2023-11-18T07:26:08;5.70;;;2.95;;
41661;SDS011;27351;45.992;12.666;2023-11-18T07:28:35;4.13;;;1.90;;
41661;SDS011;27351;45.992;12.666;2023-11-18T07:31:01;3.15;;;1.60;;
41661;SDS011;27351;45.992;12.666;2023-11-18T07:33:30;3.60;;;1.30;;
41661;SDS011;27351;45.992;12.666;2023-11-18T07:35:58;3.10;;;1.48;;
41661;SDS011;27351;45.992;12.666;2023-11-18T07:38:23;3.60;;;1.70;;
41661;SDS011;27351;45.992;12.666;2023-11-18T07:40:49;3.28;;;1.75;;
41661;SDS011;27351;45.992;12.666;2023-11-18T07:43:15;3.92;;;1.85;;
41661;SDS011;27351;45.992;12.666;2023-11-18T07:45:41;5.13;;;2.00;;
41661;SDS011;27351;45.992;12.666;2023-11-18T07:48:08;4.20;;;1.75;;
41661;SDS011;27351;45.992;12.666;2023-11-18T07:50:34;5.05;;;2.00;;
41661;SDS011;27351;45.992;12.666;2023-11-18T07:53:00;3.83;;;1.58;;
41661;SDS011;27351;45.992;12.666;2023-11-18T07:55:25;3.53;;;1.80;;
41661;SDS011;27351;45.992;12.666;2023-11-18T07:57:51;2.70;;;1.40;;
41661;SDS011;27351;45.992;12.666;2023-11-18T08:00:17;8.20;;;2.22;;
41661;SDS011;27351;45.992;12.666;2023-11-18T08:02:43;2.97;;;1.73;;
41661;SDS011;27351;45.992;12.666;2023-11-18T08:05:10;2.42;;;1.48;;
41661;SDS011;27351;45.992;12.666;2023-11-18T08:07:40;3.28;;;1.55;;
41661;SDS011;27351;45.992;12.666;2023-11-18T08:10:06;3.60;;;1.20;;
41661;SDS011;27351;45.992;12.666;2023-11-18T08:12:32;3.72;;;2.03;;
41661;SDS011;27351;45.992;12.666;2023-11-18T08:14:58;3.88;;;1.52;;
41661;SDS011;27351;45.992;12.666;2023-11-18T08:17:25;3.47;;;1.45;;
41661;SDS011;27351;45.992;12.666;2023-11-18T08:19:53;4.10;;;1.77;;
41661;SDS011;27351;45.992;12.666;2023-11-18T08:22:19;4.50;;;1.80;;
41661;SDS011;27351;45.992;12.666;2023-11-18T08:24:46;4.30;;;1.70;;
41661;SDS011;27351;45.992;12.666;2023-11-18T08:27:11;6.18;;;1.95;;
41661;SDS011;27351;45.992;12.666;2023-11-18T08:29:37;4.97;;;1.80;;
41661;SDS011;27351;45.992;12.666;2023-11-18T08:32:04;4.70;;;2.13;;
41661;SDS011;27351;45.992;12.666;2023-11-18T08:34:30;4.07;;;2.00;;
41661;SDS011;27351;45.992;12.666;2023-11-18T08:36:59;4.20;;;1.90;;
41661;SDS011;27351;45.992;12.666;2023-11-18T08:39:25;4.63;;;1.90;;
41661;SDS011;27351;45.992;12.666;2023-11-18T08:41:51;3.70;;;1.70;;
41661;SDS011;27351;45.992;12.666;2023-11-18T08:44:17;3.65;;;1.80;;
41661;SDS011;27351;45.992;12.666;2023-11-18T08:46:43;3.40;;;1.80;;
41661;SDS011;27351;45.992;12.666;2023-11-18T08:49:08;4.53;;;1.87;;
41661;SDS011;27351;45.992;12.666;2023-11-18T08:51:36;4.15;;;1.75;;
41661;SDS011;27351;45.992;12.666;2023-11-18T08:54:04;4.80;;;2.85;;
41661;SDS011;27351;45.992;12.666;2023-11-18T08:56:50;5.85;;;3.15;;
41661;SDS011;27351;45.992;12.666;2023-11-18T08:59:22;5.60;;;2.65;;
41661;SDS011;27351;45.992;12.666;2023-11-18T09:01:51;5.88;;;2.78;;
41661;SDS011;27351;45.992;12.666;2023-11-18T09:04:24;6.32;;;2.53;;
41661;SDS011;27351;45.992;12.666;2023-11-18T09:06:50;5.20;;;2.25;;
41661;SDS011;27351;45.992;12.666;2023-11-18T09:09:22;5.40;;;2.47;;
41661;SDS011;27351;45.992;12.666;2023-11-18T09:11:57;3.58;;;1.92;;
41661;SDS011;27351;45.992;12.666;2023-11-18T09:14:26;4.85;;;1.95;;
41661;SDS011;27351;45.992;12.666;2023-11-18T09:16:52;3.90;;;2.23;;
41661;SDS011;27351;45.992;12.666;2023-11-18T09:19:20;5.57;;;2.17;;
41661;SDS011;27351;45.992;12.666;2023-11-18T09:21:46;3.33;;;1.73;;
41661;SDS011;27351;45.992;12.666;2023-11-18T09:24:12;4.70;;;1.90;;
41661;SDS011;27351;45.992;12.666;2023-11-18T09:26:39;4.72;;;2.00;;
41661;SDS011;27351;45.992;12.666;2023-11-18T09:29:05;4.27;;;1.80;;
41661;SDS011;27351;45.992;12.666;2023-11-18T09:31:36;3.58;;;1.80;;
41661;SDS011;27351;45.992;12.666;2023-11-18T09:34:02;5.40;;;2.20;;
41661;SDS011;27351;45.992;12.666;2023-11-18T09:36:32;6.88;;;2.22;;
41661;SDS011;27351;45.992;12.666;2023-11-18T09:38:59;5.40;;;1.97;;
41661;SDS011;27351;45.992;12.666;2023-11-18T09:41:25;3.80;;;1.80;;
41661;SDS011;27351;45.992;12.666;2023-11-18T09:43:52;3.37;;;1.50;;
41661;SDS011;27351;45.992;12.666;2023-11-18T09:46:28;3.17;;;1.73;;
41661;SDS011;27351;45.992;12.666;2023-11-18T09:51:40;3.13;;;1.60;;
41661;SDS011;27351;45.992;12.666;2023-11-18T09:57:14;4.18;;;1.70;;
41661;SDS011;27351;45.992;12.666;2023-11-18T09:59:49;5.45;;;2.05;;
41661;SDS011;27351;45.992;12.666;2023-11-18T10:02:24;5.50;;;2.03;;
41661;SDS011;27351;45.992;12.666;2023-11-18T10:04:51;5.55;;;2.20;;
41661;SDS011;27351;45.992;12.666;2023-11-18T10:07:25;4.22;;;2.00;;
41661;SDS011;27351;45.992;12.666;2023-11-18T10:09:55;4.00;;;1.90;;
41661;SDS011;27351;45.992;12.666;2023-11-18T10:12:24;3.45;;;1.58;;
41661;SDS011;27351;45.992;12.666;2023-11-18T10:14:49;3.78;;;1.40;;
41661;SDS011;27351;45.992;12.666;2023-11-18T10:17:18;4.30;;;1.65;;
41661;SDS011;27351;45.992;12.666;2023-11-18T10:19:51;3.60;;;1.48;;
41661;SDS011;27351;45.992;12.666;2023-11-18T10:22:26;3.58;;;1.40;;
41661;SDS011;27351;45.992;12.666;2023-11-18T10:24:53;4.80;;;1.38;;
41661;SDS011;27351;45.992;12.666;2023-11-18T10:27:26;3.28;;;1.58;;
41661;SDS011;27351;45.992;12.666;2023-11-18T10:30:11;4.70;;;1.70;;
41661;SDS011;27351;45.992;12.666;2023-11-18T10:32:55;2.95;;;1.63;;
41661;SDS011;27351;45.992;12.666;2023-11-18T10:35:21;5.57;;;1.83;;
41661;SDS011;27351;45.992;12.666;2023-11-18T10:37:47;5.00;;;1.83;;
41661;SDS011;27351;45.992;12.666;2023-11-18T10:40:14;2.95;;;1.67;;
41661;SDS011;27351;45.992;12.666;2023-11-18T10:42:40;4.97;;;1.90;;
41661;SDS011;27351;45.992;12.666;2023-11-18T10:45:08;3.80;;;1.40;;
41661;SDS011;27351;45.992;12.666;2023-11-18T10:47:38;4.25;;;1.98;;
41661;SDS011;27351;45.992;12.666;2023-11-18T10:50:07;6.35;;;2.60;;
41661;SDS011;27351;45.992;12.666;2023-11-18T10:52:35;3.42;;;1.90;;
41661;SDS011;27351;45.992;12.666;2023-11-18T10:55:06;5.55;;;2.22;;
41661;SDS011;27351;45.992;12.666;2023-11-18T10:57:36;4.22;;;2.08;;
41661;SDS011;27351;45.992;12.666;2023-11-18T11:00:07;4.37;;;1.90;;
41661;SDS011;27351;45.992;12.666;2023-11-18T11:02:39;4.10;;;1.70;;
41661;SDS011;27351;45.992;12.666;2023-11-18T11:05:09;6.57;;;2.20;;
41661;SDS011;27351;45.992;12.666;2023-11-18T11:07:43;5.30;;;2.80;;
41661;SDS011;27351;45.992;12.666;2023-11-18T11:10:10;5.15;;;2.42;;
41661;SDS011;27351;45.992;12.666;2023-11-18T11:12:38;6.05;;;2.67;;
41661;SDS011;27351;45.992;12.666;2023-11-18T11:15:11;6.68;;;2.88;;
41661;SDS011;27351;45.992;12.666;2023-11-18T11:17:39;7.38;;;2.80;;
41661;SDS011;27351;45.992;12.666;2023-11-18T11:20:10;5.55;;;2.65;;
41661;SDS011;27351;45.992;12.666;2023-11-18T11:25:38;5.85;;;3.08;;
41661;SDS011;27351;45.992;12.666;2023-11-18T11:30:45;6.68;;;3.47;;
41661;SDS011;27351;45.992;12.666;2023-11-18T11:33:18;7.57;;;3.10;;
41661;SDS011;27351;45.992;12.666;2023-11-18T11:35:48;7.90;;;2.97;;
41661;SDS011;27351;45.992;12.666;2023-11-18T11:38:14;8.15;;;3.30;;
41661;SDS011;27351;45.992;12.666;2023-11-18T11:40:42;7.85;;;3.15;;
41661;SDS011;27351;45.992;12.666;2023-11-18T11:43:09;6.97;;;2.60;;
41661;SDS011;27351;45.992;12.666;2023-11-18T11:45:36;6.40;;;2.70;;
41661;SDS011;27351;45.992;12.666;2023-11-18T11:48:02;5.83;;;2.50;;
41661;SDS011;27351;45.992;12.666;2023-11-18T11:50:55;5.80;;;2.50;;
41661;SDS011;27351;45.992;12.666;2023-11-18T11:53:24;6.55;;;2.60;;
41661;SDS011;27351;45.992;12.666;2023-11-18T11:55:52;5.40;;;2.40;;
41661;SDS011;27351;45.992;12.666;2023-11-18T11:58:34;4.90;;;2.10;;
41661;SDS011;27351;45.992;12.666;2023-11-18T12:01:36;5.05;;;2.20;;
41661;SDS011;27351;45.992;12.666;2023-11-18T12:03:58;4.90;;;2.30;;
41661;SDS011;27351;45.992;12.666;2023-11-18T12:06:32;6.85;;;2.47;;
41661;SDS011;27351;45.992;12.666;2023-11-18T12:09:00;5.40;;;2.80;;
41661;SDS011;27351;45.992;12.666;2023-11-18T12:11:32;6.18;;;2.97;;
41661;SDS011;27351;45.992;12.666;2023-11-18T12:14:08;6.15;;;2.78;;
41661;SDS011;27351;45.992;12.666;2023-11-18T12:19:29;5.93;;;2.93;;
41661;SDS011;27351;45.992;12.666;2023-11-18T12:22:01;7.15;;;2.97;;
41661;SDS011;27351;45.992;12.666;2023-11-18T12:24:35;6.22;;;2.85;;
41661;SDS011;27351;45.992;12.666;2023-11-18T12:27:00;7.88;;;3.08;;
41661;SDS011;27351;45.992;12.666;2023-11-18T12:29:33;5.18;;;2.60;;
41661;SDS011;27351;45.992;12.666;2023-11-18T12:31:59;4.80;;;2.42;;
41661;SDS011;27351;45.992;12.666;2023-11-18T12:34:48;7.13;;;3.15;;
41661;SDS011;27351;45.992;12.666;2023-11-18T12:43:00;6.43;;;2.87;;
41661;SDS011;27351;45.992;12.666;2023-11-18T12:45:50;4.88;;;2.55;;
41661;SDS011;27351;45.992;12.666;2023-11-18T12:48:21;5.00;;;2.55;;
41661;SDS011;27351;45.992;12.666;2023-11-18T12:50:55;4.47;;;2.15;;
41661;SDS011;27351;45.992;12.666;2023-11-18T12:53:21;6.43;;;2.30;;
41661;SDS011;27351;45.992;12.666;2023-11-18T12:55:49;5.35;;;2.10;;
41661;SDS011;27351;45.992;12.666;2023-11-18T12:58:15;4.37;;;1.80;;
41661;SDS011;27351;45.992;12.666;2023-11-18T13:00:40;4.20;;;1.90;;
41661;SDS011;27351;45.992;12.666;2023-11-18T13:03:08;3.65;;;1.67;;
41661;SDS011;27351;45.992;12.666;2023-11-18T13:05:36;2.97;;;1.60;;
41661;SDS011;27351;45.992;12.666;2023-11-18T13:08:02;3.35;;;1.60;;
41661;SDS011;27351;45.992;12.666;2023-11-18T13:10:28;3.45;;;1.40;;
41661;SDS011;27351;45.992;12.666;2023-11-18T13:12:54;3.13;;;1.52;;
41661;SDS011;27351;45.992;12.666;2023-11-18T13:15:19;3.25;;;1.50;;
41661;SDS011;27351;45.992;12.666;2023-11-18T13:17:58;3.40;;;1.60;;
41661;SDS011;27351;45.992;12.666;2023-11-18T13:20:25;3.72;;;1.50;;
41661;SDS011;27351;45.992;12.666;2023-11-18T13:22:51;3.22;;;1.50;;
41661;SDS011;27351;45.992;12.666;2023-11-18T13:25:18;3.60;;;1.20;;
41661;SDS011;27351;45.992;12.666;2023-11-18T13:27:43;4.77;;;1.73;;
41661;SDS011;27351;45.992;12.666;2023-11-18T13:30:09;2.60;;;1.40;;
41661;SDS011;27351;45.992;12.666;2023-11-18T13:32:41;3.15;;;1.38;;
41661;SDS011;27351;45.992;12.666;2023-11-18T13:35:07;3.70;;;1.00;;
41661;SDS011;27351;45.992;12.666;2023-11-18T13:37:33;2.28;;;1.10;;
41661;SDS011;27351;45.992;12.666;2023-11-18T13:39:58;2.08;;;1.17;;
41661;SDS011;27351;45.992;12.666;2023-11-18T13:42:25;1.70;;;0.90;;
41661;SDS011;27351;45.992;12.666;2023-11-18T13:44:53;2.03;;;1.00;;
41661;SDS011;27351;45.992;12.666;2023-11-18T13:47:22;1.48;;;1.00;;
41661;SDS011;27351;45.992;12.666;2023-11-18T13:49:50;2.00;;;0.50;;
41661;SDS011;27351;45.992;12.666;2023-11-18T13:52:17;2.72;;;0.80;;
41661;SDS011;27351;45.992;12.666;2023-11-18T13:54:44;2.35;;;0.98;;
41661;SDS011;27351;45.992;12.666;2023-11-18T13:57:10;3.50;;;1.20;;
41661;SDS011;27351;45.992;12.666;2023-11-18T13:59:39;2.33;;;1.23;;
41661;SDS011;27351;45.992;12.666;2023-11-18T14:02:05;3.28;;;1.30;;
41661;SDS011;27351;45.992;12.666;2023-11-18T14:04:31;2.40;;;1.20;;
41661;SDS011;27351;45.992;12.666;2023-11-18T14:07:02;2.95;;;1.27;;
41661;SDS011;27351;45.992;12.666;2023-11-18T14:09:29;3.40;;;1.55;;
41661;SDS011;27351;45.992;12.666;2023-11-18T14:11:57;3.50;;;1.57;;
41661;SDS011;27351;45.992;12.666;2023-11-18T14:14:23;2.97;;;1.50;;
41661;SDS011;27351;45.992;12.666;2023-11-18T14:16:50;2.42;;;1.25;;
41661;SDS011;27351;45.992;12.666;2023-11-18T14:19:18;2.40;;;1.30;;
41661;SDS011;27351;45.992;12.666;2023-11-18T14:21:44;2.37;;;1.20;;
41661;SDS011;27351;45.992;12.666;2023-11-18T14:24:09;2.83;;;1.53;;
41661;SDS011;27351;45.992;12.666;2023-11-18T14:26:37;3.08;;;1.50;;
41661;SDS011;27351;45.992;12.666;2023-11-18T14:29:02;2.88;;;1.50;;
41661;SDS011;27351;45.992;12.666;2023-11-18T14:31:28;3.13;;;1.83;;
41661;SDS011;27351;45.992;12.666;2023-11-18T14:33:54;4.50;;;1.90;;
41661;SDS011;27351;45.992;12.666;2023-11-18T14:36:24;3.28;;;1.65;;
41661;SDS011;27351;45.992;12.666;2023-11-18T14:38:50;3.53;;;1.60;;
41661;SDS011;27351;45.992;12.666;2023-11-18T14:41:16;2.90;;;1.58;;
41661;SDS011;27351;45.992;12.666;2023-11-18T14:43:42;3.25;;;1.65;;
41661;SDS011;27351;45.992;12.666;2023-11-18T14:46:07;5.30;;;1.97;;
41661;SDS011;27351;45.992;12.666;2023-11-18T14:48:34;4.20;;;1.60;;
41661;SDS011;27351;45.992;12.666;2023-11-18T14:50:59;2.30;;;1.40;;
41661;SDS011;27351;45.992;12.666;2023-11-18T14:53:26;4.15;;;1.60;;
41661;SDS011;27351;45.992;12.666;2023-11-18T14:55:51;3.50;;;1.40;;